Time;durP1;ratioP1;P1;durP2;ratioP2;P2;SDS_P1;SDS_P2;PMS_P1;PMS_P2;Temp;Humidity;BMP_temperature;BMP_pressure;BME280_temperature;BME280_humidity;BME280_pressure;Samples;Min_cycle;Max_cycle;Signal;HPM_P1;HPM_P2
2021/05/17 00:00:36;;;;;;;9.35;3.05;;;8.00;99.90;;;;;;5068720;28;20054;-90
2021/05/17 00:03:03;;;;;;;10.00;3.75;;;7.90;99.90;;;;;;5074916;28;20092;-91
2021/05/17 00:05:30;;;;;;;9.52;3.58;;;7.90;99.90;;;;;;5076415;28;20047;-90
2021/05/17 00:07:57;;;;;;;5.97;2.85;;;7.90;99.90;;;;;;5075919;28;20059;-91
2021/05/17 00:10:23;;;;;;;7.07;3.15;;;7.90;99.90;;;;;;5091350;28;20037;-90
2021/05/17 00:12:50;;;;;;;5.85;3.65;;;7.90;99.90;;;;;;5111033;28;20135;-90
2021/05/17 00:15:19;;;;;;;7.55;3.47;;;7.90;99.90;;;;;;5092977;28;20047;-90
2021/05/17 00:17:46;;;;;;;12.43;4.20;;;7.90;99.90;;;;;;5091142;28;20071;-90
2021/05/17 00:20:14;;;;;;;10.43;3.65;;;8.00;99.90;;;;;;5080055;28;20484;-91
2021/05/17 00:22:40;;;;;;;8.25;4.10;;;8.00;99.90;;;;;;5039898;28;20052;-91
2021/05/17 00:25:06;;;;;;;5.38;3.05;;;8.00;99.90;;;;;;5080943;28;20384;-90
2021/05/17 00:27:32;;;;;;;9.02;3.88;;;8.00;99.90;;;;;;5076176;28;20487;-91
2021/05/17 00:29:58;;;;;;;12.80;4.18;;;8.10;99.90;;;;;;5055323;28;20036;-91
2021/05/17 00:32:24;;;;;;;6.75;4.03;;;8.00;99.90;;;;;;5069914;28;20047;-90
2021/05/17 00:34:50;;;;;;;9.43;4.20;;;8.10;99.90;;;;;;5109080;28;20043;-91
2021/05/17 00:37:18;;;;;;;11.93;3.85;;;8.20;99.90;;;;;;5060584;28;20040;-90
2021/05/17 00:39:44;;;;;;;6.53;3.22;;;8.20;99.90;;;;;;5067722;28;20463;-91
2021/05/17 00:42:10;;;;;;;7.07;3.05;;;8.20;99.90;;;;;;5091185;28;20048;-91
2021/05/17 00:44:41;;;;;;;7.22;3.75;;;8.20;99.90;;;;;;5092819;28;20046;-89
2021/05/17 00:47:12;;;;;;;7.68;3.97;;;8.20;99.90;;;;;;5091713;28;20085;-91
2021/05/17 00:49:40;;;;;;;7.05;3.80;;;8.30;99.90;;;;;;5088307;28;20475;-91
2021/05/17 00:52:07;;;;;;;4.75;2.83;;;8.40;99.90;;;;;;5056018;28;20100;-91
2021/05/17 00:54:33;;;;;;;11.00;3.40;;;8.30;99.90;;;;;;5072805;28;20078;-90
2021/05/17 00:56:59;;;;;;;10.45;3.88;;;8.40;99.90;;;;;;5068867;28;20400;-91
2021/05/17 00:59:25;;;;;;;12.15;4.53;;;8.40;99.90;;;;;;5075834;28;20031;-91
2021/05/17 01:01:51;;;;;;;11.75;3.60;;;8.40;99.90;;;;;;5092238;28;20115;-90
2021/05/17 01:04:17;;;;;;;14.82;4.72;;;8.50;99.90;;;;;;5083214;28;20585;-91
2021/05/17 01:06:53;;;;;;;13.95;5.05;;;8.50;99.90;;;;;;5055824;28;20040;-91
2021/05/17 01:09:20;;;;;;;11.50;4.22;;;8.50;99.90;;;;;;5086226;28;20072;-91
2021/05/17 01:11:46;;;;;;;11.23;4.25;;;8.60;99.90;;;;;;5083313;28;20055;-91
2021/05/17 01:14:14;;;;;;;9.77;4.40;;;8.50;99.90;;;;;;5091642;28;20499;-90
2021/05/17 01:16:41;;;;;;;15.65;5.28;;;8.60;99.90;;;;;;5075260;28;20123;-91
2021/05/17 01:19:11;;;;;;;13.75;5.25;;;8.60;99.90;;;;;;5091485;28;20653;-91
2021/05/17 01:21:40;;;;;;;11.07;4.85;;;8.70;99.90;;;;;;5110395;28;20114;-89
2021/05/17 01:24:07;;;;;;;13.98;4.97;;;8.70;99.90;;;;;;5109074;28;20051;-90
2021/05/17 01:26:35;;;;;;;17.58;5.53;;;8.70;99.90;;;;;;5081213;28;20126;-90
2021/05/17 01:29:05;;;;;;;12.57;5.88;;;8.80;99.90;;;;;;5102008;28;20067;-90
2021/05/17 01:31:32;;;;;;;9.95;4.63;;;8.80;99.90;;;;;;5106318;27;20123;-88
2021/05/17 01:33:58;;;;;;;15.40;5.20;;;8.80;99.90;;;;;;5066441;28;20047;-89
2021/05/17 01:36:25;;;;;;;10.23;5.05;;;8.80;99.90;;;;;;5074713;28;20043;-89
2021/05/17 01:38:53;;;;;;;14.93;4.28;;;8.80;99.90;;;;;;5091943;28;20047;-88
2021/05/17 01:41:21;;;;;;;9.80;3.78;;;8.80;99.90;;;;;;5064730;28;20075;-87
2021/05/17 01:43:54;;;;;;;10.70;3.90;;;8.90;99.90;;;;;;5089911;28;20047;-88
2021/05/17 01:46:25;;;;;;;14.32;3.80;;;8.80;99.90;;;;;;5090835;28;20058;-88
2021/05/17 01:48:52;;;;;;;11.30;3.65;;;8.80;99.90;;;;;;5091698;28;20119;-89
2021/05/17 01:51:20;;;;;;;11.70;4.43;;;8.80;99.90;;;;;;5081952;28;20043;-89
2021/05/17 01:53:47;;;;;;;6.13;3.60;;;8.90;99.90;;;;;;5091620;28;20100;-91
2021/05/17 01:56:16;;;;;;;11.40;4.28;;;8.90;99.90;;;;;;5083988;28;20054;-89
2021/05/17 01:58:42;;;;;;;10.15;4.00;;;8.90;99.90;;;;;;5087578;28;20144;-92
2021/05/17 02:01:11;;;;;;;9.25;3.65;;;8.90;99.90;;;;;;5086622;28;20519;-93
2021/05/17 02:03:38;;;;;;;8.88;4.18;;;8.90;99.90;;;;;;5087722;28;20031;-92
2021/05/17 02:06:09;;;;;;;9.02;5.13;;;8.90;99.90;;;;;;5087324;28;20055;-91
2021/05/17 02:08:42;;;;;;;9.18;4.82;;;8.90;99.90;;;;;;5071244;28;20056;-90
2021/05/17 02:11:11;;;;;;;8.13;3.65;;;8.90;99.90;;;;;;5071980;28;20484;-91
2021/05/17 02:13:37;;;;;;;4.47;3.35;;;8.90;99.90;;;;;;5062972;28;20052;-92
2021/05/17 02:16:04;;;;;;;10.70;4.13;;;8.90;99.90;;;;;;5087122;28;20036;-89
2021/05/17 02:18:30;;;;;;;11.57;3.08;;;8.90;99.90;;;;;;5089472;28;20597;-90
2021/05/17 02:20:57;;;;;;;10.00;3.35;;;8.90;99.90;;;;;;5087817;28;20161;-92
2021/05/17 02:23:22;;;;;;;9.20;4.20;;;8.90;99.90;;;;;;5087229;28;20122;-89
2021/05/17 02:25:50;;;;;;;10.10;4.82;;;8.90;99.90;;;;;;5087291;28;20484;-90
2021/05/17 02:28:18;;;;;;;10.90;5.25;;;8.90;99.90;;;;;;5074708;28;20115;-91
2021/05/17 02:30:45;;;;;;;9.35;5.70;;;8.90;99.90;;;;;;5087893;28;20040;-91
2021/05/17 02:33:12;;;;;;;11.18;4.78;;;9.00;99.90;;;;;;5086967;28;20048;-92
2021/05/17 02:35:40;;;;;;;6.05;3.92;;;9.00;99.90;;;;;;5088152;28;20051;-91
2021/05/17 02:38:07;;;;;;;6.32;3.50;;;9.00;99.90;;;;;;5066748;28;20037;-90
2021/05/17 02:40:33;;;;;;;5.32;2.92;;;8.90;99.90;;;;;;5080937;28;20051;-89
2021/05/17 02:43:08;;;;;;;12.68;4.07;;;9.00;99.90;;;;;;5067697;28;20144;-91
2021/05/17 02:45:35;;;;;;;8.65;4.13;;;9.00;99.90;;;;;;5092020;28;20129;-92
2021/05/17 02:48:02;;;;;;;7.35;4.93;;;9.00;99.90;;;;;;5091510;28;20113;-92
2021/05/17 02:50:36;;;;;;;8.68;5.32;;;9.00;99.90;;;;;;5091301;28;20066;-91
2021/05/17 02:53:25;;;;;;;9.98;5.25;;;9.00;99.90;;;;;;5088665;28;20046;-89
2021/05/17 02:55:54;;;;;;;14.30;6.30;;;9.00;99.90;;;;;;5091678;28;20404;-91
2021/05/17 02:58:22;;;;;;;10.40;5.25;;;9.00;99.90;;;;;;5090015;28;20056;-91
2021/05/17 03:01:00;;;;;;;9.73;4.88;;;9.00;99.90;;;;;;5093053;28;20044;-89
2021/05/17 03:03:27;;;;;;;8.45;4.15;;;9.00;99.90;;;;;;5088239;28;20865;-89
2021/05/17 03:06:02;;;;;;;8.50;4.30;;;9.00;99.90;;;;;;5071148;28;20102;-91
2021/05/17 03:08:36;;;;;;;8.63;4.90;;;9.00;99.90;;;;;;5087000;28;20040;-92
2021/05/17 03:11:03;;;;;;;6.43;4.45;;;9.00;99.90;;;;;;5076926;28;20040;-92
2021/05/17 03:13:30;;;;;;;13.40;4.60;;;9.00;99.90;;;;;;5085824;28;20036;-91
2021/05/17 03:15:56;;;;;;;10.68;5.50;;;9.00;99.90;;;;;;5091077;28;20046;-92
2021/05/17 03:18:24;;;;;;;10.60;4.75;;;9.10;99.90;;;;;;5090086;28;20036;-89
2021/05/17 03:20:50;;;;;;;8.45;5.53;;;9.00;99.90;;;;;;5090629;28;20135;-89
2021/05/17 03:23:17;;;;;;;8.40;4.82;;;9.00;99.90;;;;;;5073417;28;20111;-92
2021/05/17 03:25:46;;;;;;;16.92;5.57;;;9.00;99.90;;;;;;5091118;28;20040;-92
2021/05/17 03:28:12;;;;;;;9.50;5.70;;;8.90;99.90;;;;;;5080580;28;20028;-91
2021/05/17 03:30:38;;;;;;;9.80;5.85;;;9.00;99.90;;;;;;5070753;28;20652;-93
2021/05/17 03:33:04;;;;;;;8.02;4.70;;;9.00;99.90;;;;;;5091274;28;20128;-91
2021/05/17 03:35:30;;;;;;;9.02;4.78;;;8.90;99.90;;;;;;5073271;28;20048;-90
2021/05/17 03:37:56;;;;;;;7.75;5.10;;;8.90;99.90;;;;;;5090400;28;20044;-90
2021/05/17 03:40:22;;;;;;;6.90;4.15;;;8.80;99.90;;;;;;5073184;28;20404;-90
2021/05/17 03:42:48;;;;;;;8.93;4.72;;;8.80;99.90;;;;;;5078128;28;20040;-92
2021/05/17 03:45:14;;;;;;;7.80;4.30;;;8.80;99.90;;;;;;5079624;28;20048;-92
2021/05/17 03:47:40;;;;;;;8.20;4.22;;;8.80;99.90;;;;;;5091977;28;20064;-92
2021/05/17 03:50:08;;;;;;;6.40;4.32;;;8.80;99.90;;;;;;5056319;28;20047;-91
2021/05/17 03:52:34;;;;;;;10.50;4.60;;;8.80;99.90;;;;;;5081165;28;20497;-91
2021/05/17 03:55:00;;;;;;;5.93;4.43;;;8.80;99.90;;;;;;5087832;28;20434;-91
2021/05/17 03:57:26;;;;;;;11.15;3.80;;;8.80;99.90;;;;;;5089229;28;20052;-90
2021/05/17 03:59:53;;;;;;;7.38;3.80;;;8.80;99.90;;;;;;5091216;28;20531;-89
2021/05/17 04:02:21;;;;;;;7.97;3.97;;;8.70;99.90;;;;;;5085688;28;20400;-90
2021/05/17 04:13:26;;;;;;;9.32;4.75;;;8.70;99.90;;;;;;5078109;28;20040;-90
2021/05/17 04:15:53;;;;;;;6.63;4.95;;;8.80;99.90;;;;;;5074118;28;20041;-90
2021/05/17 04:18:20;;;;;;;9.65;5.10;;;8.80;99.90;;;;;;5058004;28;20029;-92
2021/05/17 04:20:48;;;;;;;12.40;6.00;;;8.70;99.90;;;;;;5084181;28;20047;-90
2021/05/17 04:23:14;;;;;;;7.72;5.68;;;8.80;99.90;;;;;;5088765;28;20688;-89
2021/05/17 04:25:40;;;;;;;13.10;6.40;;;8.80;99.90;;;;;;5080141;28;20451;-92
2021/05/17 04:28:06;;;;;;;10.45;7.05;;;8.80;99.90;;;;;;5068386;28;20040;-90
2021/05/17 04:30:32;;;;;;;15.93;7.22;;;8.80;99.90;;;;;;5064131;28;20044;-91
2021/05/17 04:32:59;;;;;;;17.48;7.22;;;8.90;99.90;;;;;;5089843;28;20036;-91
2021/05/17 04:35:25;;;;;;;15.93;7.50;;;8.90;99.90;;;;;;5089802;28;20048;-92
2021/05/17 04:37:51;;;;;;;12.73;8.20;;;9.00;99.90;;;;;;5072465;28;20055;-91
2021/05/17 04:40:17;;;;;;;13.63;8.93;;;9.00;99.90;;;;;;5050944;28;20411;-91
2021/05/17 04:42:43;;;;;;;22.05;9.00;;;9.10;99.90;;;;;;5082729;28;20416;-91
2021/05/17 04:45:10;;;;;;;13.75;8.20;;;9.10;99.90;;;;;;5089311;28;20067;-91
2021/05/17 04:47:36;;;;;;;14.88;8.93;;;9.30;99.90;;;;;;5088612;28;20051;-88
2021/05/17 04:50:04;;;;;;;19.02;8.07;;;9.30;99.90;;;;;;5068711;28;20049;-90
2021/05/17 04:52:30;;;;;;;8.77;6.45;;;9.30;99.90;;;;;;5072286;28;20078;-90
2021/05/17 04:54:55;;;;;;;14.35;9.00;;;9.40;99.90;;;;;;5068442;28;20040;-91
2021/05/17 04:57:21;;;;;;;10.73;7.13;;;9.40;99.90;;;;;;5067724;28;20052;-90
2021/05/17 04:59:47;;;;;;;12.23;7.40;;;9.50;99.90;;;;;;5082833;28;20483;-88
2021/05/17 05:02:13;;;;;;;16.90;7.97;;;9.50;99.90;;;;;;5087773;28;20039;-87
2021/05/17 05:04:38;;;;;;;16.38;9.10;;;9.60;99.90;;;;;;5068269;28;20377;-87
2021/05/17 05:07:06;;;;;;;19.08;8.25;;;9.60;99.90;;;;;;5066582;28;20045;-88
2021/05/17 05:09:32;;;;;;;14.05;9.30;;;9.60;99.90;;;;;;5051571;28;20048;-88
2021/05/17 05:11:58;;;;;;;13.48;8.77;;;9.70;99.90;;;;;;5081639;28;20069;-87
2021/05/17 05:14:24;;;;;;;17.83;9.52;;;9.60;99.90;;;;;;5087820;28;20051;-88
2021/05/17 05:16:49;;;;;;;14.73;9.02;;;9.70;99.90;;;;;;5089838;28;20129;-87
2021/05/17 05:19:15;;;;;;;15.40;9.10;;;9.70;99.90;;;;;;5088352;28;20043;-87
2021/05/17 05:21:41;;;;;;;20.27;10.85;;;9.70;99.90;;;;;;5067812;28;20045;-87
2021/05/17 05:24:08;;;;;;;14.48;9.18;;;9.70;99.90;;;;;;5088665;28;20468;-88
2021/05/17 05:31:30;;;;;;;16.65;11.55;;;9.90;99.90;;;;;;5087668;28;20399;-89
2021/05/17 05:33:56;;;;;;;18.38;10.90;;;9.90;99.90;;;;;;5088616;28;20040;-89
2021/05/17 05:36:22;;;;;;;17.90;11.27;;;10.00;99.90;;;;;;5082889;28;20450;-89
2021/05/17 05:38:47;;;;;;;18.80;10.25;;;10.10;99.90;;;;;;5071606;28;20040;-89
2021/05/17 05:41:13;;;;;;;24.48;10.98;;;10.10;99.90;;;;;;5089080;28;20245;-90
2021/05/17 05:43:39;;;;;;;19.98;10.45;;;10.20;99.90;;;;;;5070672;28;20117;-89
2021/05/17 05:46:05;;;;;;;21.45;10.57;;;10.20;99.90;;;;;;5088178;28;20054;-89
2021/05/17 05:48:31;;;;;;;12.68;10.15;;;10.30;99.90;;;;;;5050861;28;20076;-88
2021/05/17 05:50:57;;;;;;;14.68;9.23;;;10.30;99.90;;;;;;5074267;28;20488;-89
2021/05/17 05:53:23;;;;;;;13.63;9.40;;;10.40;99.90;;;;;;5076954;28;20494;-90
2021/05/17 05:55:49;;;;;;;14.60;9.80;;;10.50;99.90;;;;;;5067777;28;20047;-89
2021/05/17 05:58:15;;;;;;;14.30;9.40;;;10.50;99.90;;;;;;5096608;28;20056;-90
2021/05/17 06:00:42;;;;;;;11.73;9.30;;;10.50;99.90;;;;;;5071410;28;20147;-92
2021/05/17 06:03:08;;;;;;;17.65;9.98;;;10.60;99.90;;;;;;5099852;28;20052;-92
2021/05/17 06:05:34;;;;;;;12.15;9.30;;;10.70;99.90;;;;;;5070655;28;20481;-92
2021/05/17 06:08:02;;;;;;;11.82;9.57;;;10.70;99.90;;;;;;5089033;28;20040;-92
2021/05/17 06:10:29;;;;;;;19.55;9.15;;;10.80;99.90;;;;;;5088415;28;20044;-90
2021/05/17 06:12:56;;;;;;;11.90;8.82;;;10.90;99.90;;;;;;5080653;28;20552;-89
2021/05/17 06:15:23;;;;;;;14.93;8.77;;;10.90;99.90;;;;;;5076392;28;20044;-90
2021/05/17 06:17:49;;;;;;;14.70;9.43;;;11.00;99.90;;;;;;5091370;28;20074;-90
2021/05/17 06:20:16;;;;;;;14.68;9.60;;;11.10;99.90;;;;;;5074589;28;20066;-89
2021/05/17 06:22:42;;;;;;;14.65;10.35;;;11.10;99.90;;;;;;5076429;28;20052;-88
2021/05/17 06:25:11;;;;;;;16.25;9.32;;;11.10;99.90;;;;;;5093669;28;20051;-89
2021/05/17 06:27:38;;;;;;;11.40;8.90;;;11.10;99.90;;;;;;5069492;28;20506;-89
2021/05/17 06:30:06;;;;;;;12.30;9.13;;;11.20;99.90;;;;;;5075159;28;20519;-87
2021/05/17 06:32:35;;;;;;;16.42;9.05;;;11.30;99.90;;;;;;5069644;28;20089;-89
2021/05/17 06:35:02;;;;;;;13.32;9.32;;;11.50;99.90;;;;;;5075274;28;20040;-89
2021/05/17 06:37:28;;;;;;;13.43;8.52;;;11.50;99.90;;;;;;5098522;28;20043;-89
2021/05/17 06:39:54;;;;;;;14.88;8.77;;;11.60;99.90;;;;;;5076468;28;20093;-89
2021/05/17 06:42:20;;;;;;;12.85;8.70;;;11.60;99.90;;;;;;5065244;28;20483;-89
2021/05/17 06:44:46;;;;;;;11.80;8.60;;;11.60;99.90;;;;;;5071598;28;20147;-90
2021/05/17 06:47:12;;;;;;;10.13;8.40;;;11.80;99.90;;;;;;5074914;28;20055;-89
2021/05/17 06:49:39;;;;;;;12.02;8.70;;;11.90;99.90;;;;;;5073933;28;20051;-88
2021/05/17 06:52:06;;;;;;;10.93;8.55;;;12.00;99.90;;;;;;5061006;28;20548;-89
2021/05/17 06:54:33;;;;;;;11.68;7.88;;;12.10;99.90;;;;;;5077828;28;20043;-90
2021/05/17 06:57:10;;;;;;;11.95;8.30;;;12.30;99.90;;;;;;5059781;28;20036;-90
2021/05/17 06:59:44;;;;;;;11.63;7.30;;;12.50;99.90;;;;;;5060251;28;20513;-90
2021/05/17 07:02:29;;;;;;;7.60;6.85;;;12.60;99.90;;;;;;5093939;28;20044;-88
2021/05/17 07:04:57;;;;;;;10.50;6.25;;;12.70;99.90;;;;;;5074353;28;20108;-89
2021/05/17 07:07:54;;;;;;;14.85;6.88;;;12.70;99.90;;;;;;5078772;28;20460;-88
2021/05/17 07:12:56;;;;;;;8.68;5.53;;;12.90;99.90;;;;;;5076992;28;20035;-89
2021/05/17 07:15:21;;;;;;;8.82;5.63;;;12.90;99.90;;;;;;5052721;28;20052;-89
2021/05/17 07:17:47;;;;;;;8.73;5.75;;;12.90;99.90;;;;;;5058303;28;20088;-89
2021/05/17 07:20:22;;;;;;;9.82;6.07;;;12.90;99.90;;;;;;5073451;28;20047;-89
2021/05/17 07:25:33;;;;;;;6.80;5.60;;;13.00;99.90;;;;;;5081168;28;20480;-88
2021/05/17 07:27:59;;;;;;;9.38;6.03;;;13.00;99.90;;;;;;5076962;28;20392;-88
2021/05/17 07:30:26;;;;;;;14.43;7.07;;;13.10;99.90;;;;;;5070886;28;20055;-90
2021/05/17 07:32:52;;;;;;;13.07;6.93;;;13.20;99.90;;;;;;5071712;28;20036;-85
2021/05/17 07:35:18;;;;;;;11.20;7.97;;;13.30;99.90;;;;;;5074326;28;20481;-86
2021/05/17 07:37:46;;;;;;;9.15;6.47;;;13.30;99.90;;;;;;5073380;28;20085;-86
2021/05/17 07:40:12;;;;;;;12.18;7.13;;;13.30;99.90;;;;;;5097964;28;20131;-86
2021/05/17 07:42:38;;;;;;;11.77;6.88;;;13.40;99.90;;;;;;5055911;28;20127;-87
2021/05/17 07:45:05;;;;;;;8.55;7.13;;;13.30;99.90;;;;;;5072460;28;20567;-88
2021/05/17 07:47:30;;;;;;;9.30;6.45;;;13.40;99.90;;;;;;5090603;28;20058;-88
2021/05/17 07:49:56;;;;;;;17.40;6.95;;;13.30;99.90;;;;;;5070511;28;20040;-89
2021/05/17 07:52:22;;;;;;;7.30;6.05;;;13.40;99.90;;;;;;5056827;28;20042;-88
2021/05/17 07:54:49;;;;;;;7.25;6.20;;;13.40;99.90;;;;;;5090518;28;20621;-88
2021/05/17 07:57:15;;;;;;;9.07;6.07;;;13.40;99.90;;;;;;5090955;28;20119;-88
2021/05/17 07:59:41;;;;;;;7.05;5.95;;;13.30;99.90;;;;;;5072496;28;20525;-88
2021/05/17 08:02:07;;;;;;;12.10;5.78;;;13.40;99.90;;;;;;5095815;28;20563;-89
2021/05/17 08:04:33;;;;;;;12.10;5.90;;;13.50;99.90;;;;;;5071638;28;20044;-88
2021/05/17 08:06:59;;;;;;;6.07;5.30;;;13.70;99.90;;;;;;5072541;28;20032;-89
2021/05/17 08:09:25;;;;;;;8.25;5.85;;;13.70;99.90;;;;;;5064854;28;20036;-88
2021/05/17 08:11:52;;;;;;;9.07;6.18;;;13.80;99.90;;;;;;5101574;28;20044;-87
2021/05/17 08:14:18;;;;;;;9.73;5.95;;;13.80;99.90;;;;;;5111356;28;20044;-87
2021/05/17 08:16:44;;;;;;;7.13;5.97;;;13.80;99.90;;;;;;5055634;28;20044;-87
2021/05/17 08:19:10;;;;;;;6.57;5.95;;;13.70;99.90;;;;;;5072583;28;20503;-89
2021/05/17 08:21:36;;;;;;;10.35;5.95;;;13.50;99.90;;;;;;5080827;28;20044;-88
2021/05/17 08:24:03;;;;;;;6.50;5.95;;;13.40;99.90;;;;;;5072811;28;20502;-89
2021/05/17 08:26:29;;;;;;;8.25;6.25;;;13.20;99.90;;;;;;5072623;28;20073;-88
2021/05/17 08:28:55;;;;;;;8.70;5.93;;;13.20;99.90;;;;;;5063533;28;20040;-90
2021/05/17 08:31:23;;;;;;;10.80;6.65;;;13.10;99.90;;;;;;5080533;28;20036;-91
2021/05/17 08:33:50;;;;;;;7.40;6.63;;;13.10;99.90;;;;;;5055618;28;20044;-89
2021/05/17 08:36:16;;;;;;;10.80;6.60;;;13.00;99.90;;;;;;5071288;28;20089;-88
2021/05/17 08:38:42;;;;;;;6.75;6.05;;;13.10;99.90;;;;;;5071747;28;20056;-89
2021/05/17 08:41:12;;;;;;;7.43;6.15;;;13.10;99.90;;;;;;5090825;28;20118;-89
2021/05/17 08:43:40;;;;;;;;;;;13.30;99.90;;;;;;5071954;28;20093;-89
2021/05/17 08:46:08;;;;;;;9.02;7.32;;;13.60;99.90;;;;;;5072442;28;19920;-89
2021/05/17 08:48:37;;;;;;;8.57;7.45;;;13.80;99.90;;;;;;5071620;28;20495;-88
2021/05/17 08:51:04;;;;;;;10.13;7.50;;;13.90;99.90;;;;;;5064165;28;20044;-88
2021/05/17 08:53:29;;;;;;;13.55;7.28;;;14.00;99.90;;;;;;5071870;28;20434;-88
2021/05/17 08:55:55;;;;;;;10.20;8.70;;;14.30;99.90;;;;;;5071660;28;20090;-89
2021/05/17 08:58:21;;;;;;;13.15;10.23;;;14.60;99.90;;;;;;5089628;28;20143;-89
2021/05/17 09:00:47;;;;;;;19.08;12.23;;;14.70;99.90;;;;;;5058037;28;20102;-88
2021/05/17 09:03:13;;;;;;;15.25;12.30;;;14.70;99.90;;;;;;5072040;28;20455;-88
2021/05/17 09:05:38;;;;;;;16.33;13.00;;;14.90;99.90;;;;;;5071075;28;20044;-88
2021/05/17 09:08:05;;;;;;;13.80;10.68;;;15.20;99.90;;;;;;5072099;28;20488;-88
2021/05/17 09:10:37;;;;;;;15.98;10.57;;;15.30;99.90;;;;;;5077573;28;20043;-89
2021/05/17 09:13:07;;;;;;;15.88;12.32;;;15.60;99.90;;;;;;5110354;28;20156;-88
2021/05/17 09:15:33;;;;;;;;;;;15.70;99.90;;;;;;5092529;28;20043;-88
2021/05/17 09:18:01;;;;;;;15.68;11.88;;;15.90;99.90;;;;;;5109568;28;19941;-88
2021/05/17 09:20:38;;;;;;;16.27;11.52;;;16.00;99.90;;;;;;5106903;28;20119;-88
2021/05/17 09:23:05;;;;;;;18.70;11.30;;;15.90;99.90;;;;;;5072743;28;20032;-89
2021/05/17 09:25:31;;;;;;;19.20;11.35;;;16.00;99.90;;;;;;5083812;28;20066;-88
2021/05/17 09:28:11;;;;;;;15.38;11.15;;;16.10;99.90;;;;;;5054297;28;20042;-88
2021/05/17 09:30:53;;;;;;;14.55;10.73;;;16.10;99.90;;;;;;5099618;28;20051;-88
2021/05/17 09:33:22;;;;;;;12.05;9.70;;;16.20;99.90;;;;;;5060986;28;20489;-88
2021/05/17 09:35:49;;;;;;;8.98;6.93;;;16.40;99.90;;;;;;5074432;28;20109;-89
2021/05/17 09:38:24;;;;;;;11.38;8.65;;;16.60;99.90;;;;;;5091612;28;20047;-89
2021/05/17 09:41:08;;;;;;;12.80;8.82;;;16.70;99.90;;;;;;5090908;28;20854;-89
2021/05/17 09:43:34;;;;;;;12.73;8.50;;;16.80;99.90;;;;;;5075013;28;20247;-88
2021/05/17 09:46:01;;;;;;;13.55;8.00;;;16.80;99.90;;;;;;5084355;28;20065;-89
2021/05/17 09:48:30;;;;;;;12.38;8.18;;;17.00;99.90;;;;;;5090103;28;20498;-88
2021/05/17 09:51:10;;;;;;;9.52;8.38;;;17.00;99.90;;;;;;5102436;28;20066;-89
2021/05/17 09:53:41;;;;;;;;;;;17.20;99.90;;;;;;5103590;28;20040;-88
2021/05/17 09:56:11;;;;;;;14.65;10.35;;;17.30;99.90;;;;;;5069971;28;19942;-89
2021/05/17 09:58:43;;;;;;;12.25;9.85;;;17.10;99.90;;;;;;5088100;28;20819;-88
2021/05/17 10:01:09;;;;;;;16.60;10.13;;;17.10;99.90;;;;;;5081879;28;20036;-89
2021/05/17 10:03:44;;;;;;;13.93;10.18;;;17.20;99.90;;;;;;5102181;28;20036;-89
2021/05/17 10:06:12;;;;;;;13.02;10.32;;;17.40;99.90;;;;;;5089223;28;20050;-89
2021/05/17 10:08:38;;;;;;;10.15;9.15;;;17.40;99.90;;;;;;5071156;28;20498;-89
2021/05/17 10:11:07;;;;;;;13.30;9.82;;;17.30;99.90;;;;;;5076900;28;20130;-89
2021/05/17 10:13:34;;;;;;;10.38;8.40;;;17.10;99.90;;;;;;5091415;28;20043;-89
2021/05/17 10:16:06;;;;;;;9.02;7.85;;;17.00;99.90;;;;;;5091028;28;20667;-89
2021/05/17 10:18:33;;;;;;;12.40;8.65;;;16.90;99.90;;;;;;5090166;28;20050;-89
2021/05/17 10:20:59;;;;;;;15.80;8.40;;;17.10;99.90;;;;;;5090006;28;20068;-89
2021/05/17 10:23:26;;;;;;;8.93;7.32;;;17.20;99.90;;;;;;5065751;28;20044;-89
2021/05/17 10:26:04;;;;;;;11.80;7.50;;;17.40;99.90;;;;;;5069301;28;20051;-89
2021/05/17 10:28:32;;;;;;;9.10;7.55;;;17.60;99.90;;;;;;5090984;28;20075;-88
2021/05/17 10:31:18;;;;;;;9.38;7.13;;;17.90;99.90;;;;;;5072003;28;20534;-89
2021/05/17 10:34:08;;;;;;;8.18;7.22;;;18.00;99.90;;;;;;5069190;28;20127;-89
2021/05/17 10:36:54;;;;;;;8.63;7.05;;;18.00;99.90;;;;;;5070672;28;20131;-89
2021/05/17 10:39:30;;;;;;;10.23;7.10;;;18.00;99.90;;;;;;5070707;28;20044;-90
2021/05/17 10:48:14;;;;;;;9.40;7.18;;;18.00;99.90;;;;;;5087877;28;20036;-90
2021/05/17 10:50:43;;;;;;;8.73;6.00;;;17.90;99.90;;;;;;5054055;28;20063;-89
2021/05/17 10:53:43;;;;;;;6.80;6.10;;;17.80;99.90;;;;;;5053908;28;20457;-89
2021/05/17 10:56:28;;;;;;;;;;;17.50;99.90;;;;;;5070758;28;20484;-89
2021/05/17 11:01:55;;;;;;;13.65;5.78;;;17.20;99.90;;;;;;5074741;28;20391;-90
2021/05/17 11:04:32;;;;;;;10.38;5.40;;;16.80;99.90;;;;;;5057685;28;20052;-90
2021/05/17 11:07:23;;;;;;;9.60;7.28;;;16.70;99.90;;;;;;5072951;28;20407;-90
2021/05/17 11:09:52;;;;;;;10.43;7.78;;;16.60;99.90;;;;;;5091373;28;20040;-88
2021/05/17 11:12:31;;;;;;;11.80;7.90;;;16.50;99.90;;;;;;5088308;28;20051;-90
2021/05/17 11:15:13;;;;;;;7.50;6.73;;;16.50;99.90;;;;;;5086073;28;20369;-89
2021/05/17 11:17:52;;;;;;;6.47;5.55;;;16.40;99.90;;;;;;5109515;28;20304;-89
2021/05/17 11:23:06;;;;;;;8.57;4.90;;;16.10;99.90;;;;;;5091594;28;20115;-88
2021/05/17 11:25:55;;;;;;;12.50;6.53;;;15.90;99.90;;;;;;5052772;28;20036;-88
2021/05/17 11:28:39;;;;;;;5.87;4.43;;;15.70;99.90;;;;;;5094090;28;20031;-89
2021/05/17 11:34:02;;;;;;;14.00;6.68;;;15.20;99.90;;;;;;5101784;28;20036;-90
2021/05/17 11:36:34;;;;;;;12.75;5.85;;;14.70;99.90;;;;;;5109686;28;20036;-89
2021/05/17 11:39:08;;;;;;;7.80;5.55;;;14.40;99.90;;;;;;5111445;28;20043;-90
2021/05/17 11:41:53;;;;;;;8.68;5.63;;;14.00;99.90;;;;;;5108608;28;20097;-88
2021/05/17 11:44:35;;;;;;;8.55;4.70;;;13.60;99.90;;;;;;5112054;28;20122;-89
2021/05/17 11:47:04;;;;;;;5.30;4.80;;;13.40;99.90;;;;;;5079627;28;20044;-88
2021/05/17 11:49:32;;;;;;;14.00;5.00;;;13.20;99.90;;;;;;5093695;28;20066;-88
2021/05/17 11:52:07;;;;;;;11.07;5.32;;;13.10;99.90;;;;;;5092647;28;20475;-88
2021/05/17 11:54:41;;;;;;;5.88;4.53;;;12.90;99.90;;;;;;5072476;28;20371;-87
2021/05/17 11:57:08;;;;;;;10.48;4.75;;;12.80;99.90;;;;;;5092447;28;20047;-89
2021/05/17 11:59:36;;;;;;;4.55;3.30;;;12.70;99.90;;;;;;5111351;28;20095;-87
2021/05/17 12:02:11;;;;;;;9.05;4.88;;;12.60;99.90;;;;;;5092792;28;20067;-87
2021/05/17 12:04:39;;;;;;;5.88;3.88;;;12.80;99.90;;;;;;5111670;28;20130;-87
2021/05/17 12:07:13;;;;;;;7.68;4.72;;;12.80;99.90;;;;;;5088572;28;20046;-86
2021/05/17 12:09:46;;;;;;;9.65;5.65;;;13.00;99.90;;;;;;5092816;28;20480;-86
2021/05/17 12:12:17;;;;;;;10.13;6.00;;;13.20;99.90;;;;;;5083399;28;20588;-88
2021/05/17 12:14:44;;;;;;;10.55;4.45;;;13.50;99.90;;;;;;5089766;28;20058;-87
2021/05/17 12:17:14;;;;;;;4.40;3.80;;;13.50;99.90;;;;;;5088844;28;20045;-86
2021/05/17 12:20:02;;;;;;;7.60;3.63;;;13.60;99.90;;;;;;5094115;27;20043;-87
2021/05/17 12:22:37;;;;;;;10.40;3.97;;;13.60;99.90;;;;;;5076963;28;20150;-87
2021/05/17 12:25:09;;;;;;;6.93;3.30;;;13.90;99.90;;;;;;5086550;28;20688;-87
2021/05/17 12:27:35;;;;;;;6.10;3.80;;;14.00;99.90;;;;;;5071817;28;20468;-87
2021/05/17 12:30:07;;;;;;;6.95;3.75;;;14.00;99.90;;;;;;5069482;28;20044;-87
2021/05/17 12:32:37;;;;;;;3.25;2.95;;;14.30;99.90;;;;;;5072613;28;20036;-87
2021/05/17 12:35:22;;;;;;;3.70;2.97;;;14.20;99.90;;;;;;5071382;28;20044;-87
2021/05/17 12:37:50;;;;;;;4.97;2.50;;;14.20;99.90;;;;;;5071926;28;20040;-87
2021/05/17 12:40:16;;;;;;;1.50;0.88;;;14.20;99.90;;;;;;5071719;28;20040;-88
2021/05/17 12:42:43;;;;;;;1.00;0.90;;;14.20;99.90;;;;;;5073114;28;20043;-88
2021/05/17 12:45:12;;;;;;;2.90;0.85;;;14.30;99.90;;;;;;5081073;28;20051;-89
2021/05/17 12:47:40;;;;;;;4.97;1.15;;;14.40;99.90;;;;;;5085699;28;20395;-89
2021/05/17 12:50:26;;;;;;;0.95;0.60;;;14.50;99.90;;;;;;5089805;28;20051;-89
2021/05/17 12:53:02;;;;;;;1.10;0.70;;;14.60;99.90;;;;;;5071677;28;20064;-91
2021/05/17 12:55:47;;;;;;;2.30;0.65;;;14.70;99.90;;;;;;5077375;28;20421;-92
2021/05/17 12:58:24;;;;;;;2.00;0.75;;;14.80;99.90;;;;;;5070531;28;20044;-92
2021/05/17 13:00:54;;;;;;;1.70;0.60;;;14.90;99.90;;;;;;5072848;28;20044;-91
2021/05/17 13:03:45;;;;;;;0.88;0.40;;;14.90;99.90;;;;;;5057289;28;20124;-93
2021/05/17 13:06:26;;;;;;;2.13;0.63;;;14.80;99.90;;;;;;5071845;28;20625;-91
2021/05/17 13:08:55;;;;;;;8.80;3.90;;;14.60;99.90;;;;;;5072662;28;20080;-92
2021/05/17 13:14:25;;;;;;;9.45;6.05;;;14.70;99.90;;;;;;5079143;28;20109;-92
2021/05/17 13:16:55;;;;;;;6.85;5.07;;;14.60;99.90;;;;;;5046744;28;20120;-91
2021/05/17 13:30:58;;;;;;;8.15;4.72;;;14.20;99.90;;;;;;5090958;28;20061;-91
2021/05/17 13:33:34;;;;;;;5.70;4.78;;;14.30;99.90;;;;;;5072411;28;20048;-92
2021/05/17 13:36:04;;;;;;;13.82;5.88;;;14.20;99.90;;;;;;5070560;28;20557;-91
2021/05/17 13:38:33;;;;;;;9.50;5.38;;;14.30;99.90;;;;;;5067097;28;20488;-90
2021/05/17 13:41:05;;;;;;;8.60;5.38;;;14.20;99.90;;;;;;5059072;28;20101;-90
2021/05/17 13:43:31;;;;;;;8.98;6.55;;;14.10;99.90;;;;;;5072238;28;20047;-91